This is the latest recevied weather packets stored in our database for station/object WC4PEM-8. If no packets are shown the sender has not sent any weather packets the latest 10 day(s).
| Time | Temp. | Humidity | Pressure | Rain* | Wind** | Luminosity | Snow |
|---|---|---|---|---|---|---|---|
| 1777466175 | 20° C | 94% | 1017.6 hPa | 0 mm | - | - | - |
| 1777466007 | 19.44° C | 94% | 1017.5 hPa | 0 mm | - | - | - |
| 1777465875 | 19.44° C | 94% | 1017.5 hPa | 0 mm | - | - | - |
| 1777465575 | 19.44° C | 95% | 1017.5 hPa | 0 mm | - | - | - |
| 1777465426 | 18.89° C | 95% | 1017.5 hPa | 0 mm | - | - | - |
| 1777465275 | 18.89° C | 95% | 1017.5 hPa | 0 mm | - | - | - |
| 1777464975 | 18.89° C | 95% | 1017.4 hPa | 0 mm | - | - | - |
| 1777464675 | 18.89° C | 95% | 1017.4 hPa | 0 mm | - | - | - |
| 1777464375 | 18.89° C | 95% | 1017.4 hPa | 0 mm | - | - | - |
| 1777464075 | 18.33° C | 96% | 1017.3 hPa | 0 mm | - | - | - |
| 1777463775 | 18.33° C | 96% | 1017.2 hPa | 0 mm | - | - | - |
| 1777463694 | 18.33° C | 96% | 1017 hPa | 0 mm | - | - | - |
| 1777463570 | 18.33° C | 96% | 1017 hPa | 0 mm | - | - | - |
| 1777463475 | 18.33° C | 96% | 1017 hPa | 0 mm | - | - | - |
| 1777463273 | 17.22° C | 96% | 1016.6 hPa | 0 mm | - | - | - |
| 1777463175 | 17.78° C | 96% | 1016.9 hPa | 0 mm | - | - | - |
| 1777462875 | 17.78° C | 96% | 1016.9 hPa | 0 mm | - | - | - |
| 1777462575 | 17.78° C | 96% | 1016.8 hPa | 0 mm | - | - | - |
| 1777462275 | 17.78° C | 97% | 1016.8 hPa | 0 mm | - | - | - |
| 1777461975 | 17.22° C | 97% | 1016.7 hPa | 0 mm | - | - | - |
| 1777461780 | 17.22° C | 96% | 1016.6 hPa | 0 mm | - | - | - |
| 1777461675 | 17.22° C | 96% | 1016.6 hPa | 0 mm | - | - | - |
| 1777461375 | 17.22° C | 96% | 1016.5 hPa | 0 mm | - | - | - |
| 1777461160 | 16.67° C | 96% | 1016.3 hPa | 0 mm | - | - | - |
| 1777461075 | 16.67° C | 96% | 1016.3 hPa | 0 mm | - | - | - |
* Rain latest hour (hover to see other rain measurements)
** Current wind speed in m/s (hover to see current wind gust speed)